Timeline UpdatesTrip UpdatesNews PostsPvt Posts♥♥Travel TipsAdmin PostsConv PostsFollowed PostsChat RequestsBlog PostsPNR Posts

Disclaimer
Search
 
 
Wed Nov 26, 2014 22:46:44 ISTHomeTrainsΣChainsAtlasPNRForumGalleryNewsFAQTripsMembersLoginFeedback
No Recent News for this Train
Other Trains in the News **new
Latest...
.
Sun Nov 03, 2013 (10:46PM)
⇐ Return Journey: Train# 13352

13351/Dhanbad-Alappuzha Express

Time-Table HAS CHANGED.
Sep 13 2014 (11:08AM)
Change Departure Station:
Change Arrival Station:
Post a Train Travel TipPost a Train Travel Tip **new
Post a Comment/Question/Picture/VideoPost a Comment/Question/Picture/Video
Pantry/Catering
✓ Pantry Car Avbl
✓ Catering Avbl
Average
Loco/Rake Reversals
MAS/Chennai Central (12); VSKP/Visakhapatnam Junction (8); SRR/Shoranur Junction (7);
RSA - Rake Sharing
Rake/Coach Composition
LOCO-SLR-GS-S1-S2-S3-S4-S5-; S6-S7-S8-PC-A1-B1-B2*-A2*-ST1*-ST2*-; ST3*-ST4*-ST5*-GS*-SLR*;(DHN-VSKP, MAS-SRR) ; *Tata portion attached at ROU; CC reverses for VSKP-MAS & SRR-ALLP)
Loco
Official Loco DHN - ROU :- WAM-4 ROU - VSKP :- WDM-3A/WDG-3A...
Read more...
(Twins) VSKP - MAS :- WAM-4/WAP-1 MAS - ALLP:- WAM-4/WAP-4
News    PNR    Forum    Time-Table    Availability    Fare Chart    Map    Arr/Dep History    Trips    Gallery    ΣChains    X/O    Timeline    
Travel Time: 53h 15m    86 halts    Distance: 2371 km    Avg Speed: 44 km/hr
Type: Mail/Express
Zone: ECR/East Central
Departs @ 15:05
Platform# 3
SMTWTFS
Ranchi Junction/RNC 
Arrives @ 20:20 +2 nights
Platform# 3
SMTWTFS
Alappuzha/ALLP 

86 halts. 383 intermediate Stations between Ranchi Junction and Alappuzha

Show ALL intermediate Stations  Show Old Time-Table

#TrkCodeStation NameX/OArrivesAvgDepartsAvgHaltPFDay#KmSpeedElevZoneAddress
1/==/DHNDhanbad Junction (9)  -10:50-51-162.230235mECR2319801. Div. HQ ECR, Jharkhand
2/==/KTHKatrasgarh (1)  11:18-11:20-2m11-148.434198mECRKatrasgarh, Jharkhand
3/--/CRPChandrapura Junction (3)X  11:56-11:58-2m11-127.935227mECR06549-242555, Jharkhand
4/==/BKSCBokaro Steel City (3)  12:25-12:35-10m21-112.371245mSER06542-253861, Jharkhand
5/==/PNWPundhag (3)  12:49-12:50-1m21-95.763291mSERDist - Puruliya -723215, West Bengal
6/==/JAAJhalida (3)  13:12-13:13-1m--1-72.438297mSERJhalida, West Bengal
7/==/MURIMuri Junction (3)X  13:33-13:35-2m21-59.748254mSER06522-222444, Jharkhand
8/==/RNCRanchi Junction (6)»X  14:50-15:05-15m310.028632mSERDiv HQ SER, Jharkhand
9/==/HTEHatia (3)  15:20-15:25-5m--17.078657mSER2788599, Jharkhand
10/--/GBXGovindpur Road (3)  15:58 15:57-16:00 15:58-2 1m--148.882577mSERkhunti, Jharkhand
11/--/BANOBano (2)  16:45 16:37-16:46 16:38-1m--1101.936452mSERDist. Gumla, Jharkhand
12/--/NXNNuagaon  17:49-17:50-1m--1144.052218mSERKeonjhar, Odisha
13/-=/BNDMBondamunda (2)  18:14-18:15-1m--1164.826213mSERRourkela, Odisha
14/--/ROURourkela Junction (5)X  18:30-19:00-30m21171.364198mSERRourkela, Odisha
15/==/GPRaj Gangpur (3)O  19:28-19:29-1m11201.169237mSERRaj Ganpur, Odisha
16/==/BMBBamra (3)X  19:59-20:00-1m--1235.755259mSERBamra PH : 06642-229268, Odisha
17/==/JSGJharsuguda Junction (5)  20:40-20:50-10m11272.269236mSERJharsuguda, Odisha
18|==!RGLRengaliO  21:15 21:13-21:17 21:15-2m--1298.669208mECoRState Highway 10, Odisha
19|==|SBPDSambalpur Road  21:35 21:33-21:37 21:35-2m--1319.49161mECoRSambalpur, Odisha
20|--|SBPSambalpur Junction (3)X  21:45-21:55-10m--1320.964159mECoRSambalpur, Odisha
21|--|ATSAttabira  22:18-22:20-2m--1345.377164mECoRBargarh, Odisha
22|--|BRGABargarh Road (3)XO  22:34-22:39-5m--1363.472185mECoRBargarh, Odisha
23|--|BRPLBarpaliX  22:57 22:55-22:59 22:57-2m--1382.665178mECoRBarpali, Odisha
24|--|BLGRBalangir (3)  23:50-23:55-5m--1439.747210mECoRBolangir, Odisha
25|--|BUDMBadmal  00:50-00:52-2m--2483.123209mECoRDumerbahal Rd, Odisha
26|--|TIGTitlagarh Junction (3)XO  01:45-01:55-10m--2503.056212mECoRTitlagarh, Odisha
27%==%KSNGKesinga (1)XO  02:10-02:12-2m12517.065183mECoRKesinga, Odisha
28%==%RPRDRupra RoadO  02:27-02:29-2m--2533.244233mECoRKalahandi, Odisha
29%==%NRLRNorla RoadO  02:38-02:40-2m--2539.860247mECoRKalahandi, Odisha
30%==%AMBAmbodala  03:05-03:07-2m--2564.839374mECoRState Highway 6, Odisha
31%==%MNGDMunigudaX  03:45-03:47-2m--2589.841335mECoRMuniguda, Odisha
32%==%THVTherubaliO  04:40-04:42-2m--2625.831270mECoRRayagada, Odisha
33%==%SPRDSingapuram Road (2)X  05:00-05:02-2m--2635.215248mECoRJaykaypur, Odisha
34%==%RGDARayagada (3)O  05:40-05:55-15m--2644.473229mECoRRayagada ph.no 06856-222407, Odisha
35%==%PVPTParvatipuram TownXO  06:32-06:34-2m--2689.725121mECoRParvatipuram, Andhra Pradesh
36%==%PVPParvatipuram (3)X  06:38-06:40-2m--2691.372122mECoRParvatipuram, Andhra Pradesh
37%==%VBLBobbili Junction (2)X  07:00-07:03-3m22715.249137mECoRBobbili, Andhra Pradesh
38%==%VZMVizianagaram Junction (5)  08:15 08:10-08:20 08:15-5m--2769.58463mECoRVizianagaram, Andhra Pradesh
39/==/KTVKottavalasa Junction (5)X  08:48 08:40-08:50 08:42-2m--2804.56058mECoRVizianagaram District, Andhra Pradesh
40/==/SCMSimhachalam (2)X  09:17 09:00-09:19 09:02-2m--2822.6927mECoRVisakhapatnam, Andhra Pradesh
41/==/VSKPVisakhapatnam Junction (8)XO10:05 09:55-10:25 10:15-20m32830.73311mECoRVishakhapatnam 530001, Andhra Pradesh
42/==/DVDDuvvada (4)X  10:55 10:45-10:57 10:47-2m12847.04246mECoRVishakhapatnam District, Andhra Pradesh
43/==/AKPAnakapalle (3)  11:10-11:11-1m22863.07130mSCRAnakapalle ph.no . 08924-221698, Andhra Pradesh
44/==/YLMElamanchili (2)X  11:31-11:32-1m--2886.77123mSCRVisakhapatnam District, Andhra Pradesh
45/==/NRPNarsipatnam Road (2)  11:47-11:48-1m--2904.58418mSCRVisakhapatnam District, Andhra Pradesh
46/==/TUNITuni (2)X  12:04-12:05-1m12926.87124mSCRTuni ph.no. 08854-252172, Andhra Pradesh
47/==/ANVAnnavaram (3)  12:19-12:20-1m12943.47627mSCREast Godavari District, Andhra Pradesh
48/==/GLPGollaproluX  12:35-12:36-1m--2962.54919mSCRGollaprollu, Andhra Pradesh
49/==/PAPPithapuram (2)  12:43-12:44-1m--2968.27222mSCREast Godavari District, Andhra Pradesh
50/==/SLOSamalkot Junction (3)  12:54-12:55-1m32980.38418mSCRSamalkot, Andhra Pradesh
51/==/APTAnaparti (3)  13:14-13:15-1m--21006.83821mSCREast Godavari District, Andhra Pradesh
52/==/DWPDwarapudi (3)  13:21-13:22-1m--21010.62420mSCREast Godavari District, Andhra Pradesh
53/==/RJYRajahmundry (3)  14:11-14:16-5m121030.53623mSCRRajahmundry ph.no. 0883-2420541, Andhra Pradesh
54/==/KVRKovvur (3)  14:29-14:30-1m321038.36125mSCRWest Godavari, Andhra Pradesh
55/==/NDDNidadavolu Junction (3)  14:44-14:45-1m221052.67120mSCRNidadavolu jtn ph.no. 08813-210325, Andhra Pradesh
56/==/TDDTadepalligudem (3)X  15:02-15:03-1m321072.68718mSCRTadepalligudem, Andhra Pradesh
57/==/EEEluru (3)X  15:36-15:37-1m321120.43319mSCREluru Ph.no. 08812 226401., Andhra Pradesh
58/==/BZAVijayawada Junction (10)X  17:25-17:45-20m--21179.86924mSCRVijayawada 520001, Andhra Pradesh
59/==/TELTenali Junction (5)O  18:12-18:13-1m321211.06616mSCRTel: 08644-227834, Andhra Pradesh
60/==/NDONidubrolu (3)  18:33-18:34-1m--21233.0659mSCRNidubrolu, Andhra Pradesh
61/==/BPPBapatla (3)X  18:53-18:54-1m--21253.67510mSCRBapatla, Andhra Pradesh
62/==/CLXChirala (4)X  19:06-19:07-1m--21268.7768mSCRChirala, Andhra Pradesh
63/==/CJMChinnaganjam (3)X  19:23-19:24-1m--21289.0369mSCRChinna Ganjam, Andhra Pradesh
64/==/OGLOngole (3)  20:12-20:13-1m321318.07712mSCROngole, Andhra Pradesh
65/==/SKMSingarayakonda (2)X  20:35-20:36-1m221346.39126mSCRSingarayakonda, Andhra Pradesh
66/==/KVZKavali (4)X  21:01-21:02-1m221384.07621mSCRKavali, Andhra Pradesh
67/==/BTTRBitragunta (2)X  21:15-21:16-1m221400.54515mSCRBitragunta, Andhra Pradesh
68/==/NLRNellore (4)X  22:02-22:03-1m321434.81721mSCRNellore, Andhra Pradesh
69/==/GDRGudur Junction (3)  00:18-00:20-2m131473.36919mSCRGudur, Andhra Pradesh
70/==/NYPNayadupeta (3)  00:44-00:45-1m231501.06833mSRNayudupeta, Andhra Pradesh
71/==/SPESullurupeta (3)  01:09-01:10-1m231528.2479mSR524121., Andhra Pradesh
72/==/MASChennai Central (12)↵¶02:55-03:25-30m531610.6579mSRChennai 600003, Tamil Nadu
73/==/TRLTiruvallur (6)  04:09-04:10-1m--31652.36550mSRTiruvallur, Tamil Nadu
74/==/AJJArakkonam Junction (8)X  04:35-04:40-5m--31679.36891mSRArakkonam, Tamil Nadu
75/==/MCNMukundarayapuram (2)  05:19-05:20-1m--31723.533198mSRSipcot Ranipet, Tamil Nadu
76/==/KPDKatpadi Junction (5)  05:50-05:55-5m131740.177213mSRVellore 632007, Tamil Nadu
77/==/GYMGudiyattam (3)  06:14-06:15-1m331764.691269mSRVellore, Tamil Nadu
78/==/VNVaniyambadiXO  06:44-06:45-1m--31808.428357mSRVaniyambadi, Tamil Nadu
79/==/JTJJolarpettai Junction (5)O  07:18-07:20-2m--31823.943405mSRJolarpettai, Tamil Nadu
80/==/TPTTirupattur (2)  07:30-07:32-2m--31831.173392mSRTirupattur ph.no. 04179-220062, Tamil Nadu
81/==/SLYSamalpatti  07:50 07:51-07:52-2 1m--31854.390388mSRSamalpatti ph.no. 04341-245601, Tamil Nadu
82/==/BQIBommidiX  08:23-08:25-2m--31900.9520mSRBommidi ph.no. 04346-244441, Tamil Nadu
83/==/SASalem Junction (6)XO  09:00 09:15-09:05 09:20-5m--31944.261283mSRSalem, Tamil Nadu
84/==/EDErode Junction (4)X  10:15 10:20-10:25 10:30-10m232005.570175mSRErode ph.no: 0424-2256111, Tamil Nadu
85/==/TUPTiruppur (2)  11:03 11:13-11:05 11:15-2m132055.743305mSRTiruppur. Ph:0421-2200450, Tamil Nadu
86/==/CBECoimbatore Main Junction (6)  12:08 12:25-12:10 12:30-2 5m--32106.239416mSRCoimbatore 641001, Tamil Nadu
87/==/PGTPalakkad Junction (4)X  13:30 13:55-13:35 14:00-5m--32161.53684mSRPalghat Tel: 0491 2555231, Kerala
88/==/SRRShoranur Junction (7)X14:40 15:15-15:25-45 10m532206.14226mSRShoranur ph.no 0466-2222913, Kerala
89/==/TCRThrissur (4)  16:27 16:12-16:30 16:15-3m132239.1606mSRThrissur Tel: 0487 2423150, Kerala
90/==/AWYAluva (3)XO  17:18 17:10-17:20 17:12-2m132293.71712mSRPh: 0484-2624141, Kerala
91/-=/ERSErnakulam Junction (South) (6)  18:26 18:20-18:30 18:25-4 5m432313.1413mSRErnakulam 682016, Kerala
92/--/TUVRTuravur (2)  19:04 18:59-19:05 19:00-1m132336.5665mSRThuravoor, Kerala
93/--/SRTLCherthala (3)O  19:19 19:09-19:20 19:10-1m232346.5737mSRPh: 0478- 2812500, Kerala
94/--/MAKMMararikkulam (1)X  19:25 19:19-19:45 19:20-20 1m132357.41312mSRMararikulam, Kerala
95/--/ALLPAlappuzha (3)•  20:20--332370.6-8mSRPh:0477-2253965, Kerala
Scroll to Top
Scroll to Bottom